Latest Coastal Weather Observations for Devonport Airport

IDV60701

Issued at 12:41 am EDT Monday 30 March 2015 (issued every 10 minutes, with the page automatically refreshed every 10 minutes)

About coastal observations | Map of coastal stations | Coastal observations for VIC | Marine services | Other Formats
Station Details ID: 091126 Name: DEVONPORT AIRPORT Lat: -41.17 Lon: 146.43 Height: 8.0 m
Data from the previous 72 hours. | See also: Recent months at Devonport Airport
Date/Time
EDT
Temp

°C
Wind Pressure Rain
since 9am
mm
Weather Cloud Vis
km
Sea
Height
m
Swell
Dir
 
Speed
knots
Gust
knots
hPa Trend Height
m
Period
s
Dir
30/12:32am 16.3 WNW 17 23 1020.4 - 0.0 - Partly cloudy 10 - - - -
30/12:30am 16.3 WNW 18 23 1020.3 - 0.0 - Partly cloudy 10 - - - -
30/12:15am 16.5 WNW 17 21 1020.3 - 0.0 - Partly cloudy 10 - - - -
30/12:00am 16.4 WNW 16 22 1020.4 - 0.0 - Partly cloudy 18 - - - -
 
Date/Time
EDT
Temp

°C
Wind Pressure Rain
since 9am
mm
Weather Cloud Vis
km
Sea
Height
m
Swell
Dir
 
Speed
knots
Gust
knots
hPa Trend Height
m
Period
s
Dir
29/11:30pm 16.3 WNW 15 19 1020.4 - 0.0 - Partly cloudy 10 - - - -
29/11:00pm 16.2 WNW 16 20 1020.5 - 0.0 - Partly cloudy 10 - - - -
29/10:30pm 15.9 WNW 14 18 1020.4 - 0.0 - Partly cloudy 10 - - - -
29/10:00pm 16.5 WNW 14 18 1020.4 - 0.0 - Partly cloudy 10 - - - -
29/09:58pm 16.4 WNW 14 18 1020.3 - 0.0 - Partly cloudy 10 - - - -
29/09:30pm 16.6 WNW 15 18 1020.2 - 0.0 - Partly cloudy 10 - - - -
29/09:00pm 16.1 WNW 11 15 1020.0 - 0.0 - Cloudy 10 - - - -
29/08:30pm 15.9 WNW 13 16 1019.6 - 0.0 - Partly cloudy 10 - - - -
29/08:00pm 16.1 WNW 16 20 1019.3 - 0.0 - - 10 - - - -
29/07:30pm 16.6 WNW 19 23 1019.0 - 0.0 - Partly cloudy 10 - - - -
29/07:00pm 16.9 WNW 20 26 1018.7 - 0.0 - Partly cloudy 10 - - - -
29/06:30pm 17.0 WNW 21 26 1018.3 - 0.0 - Partly cloudy 10 - - - -
29/06:00pm 17.3 WNW 20 25 1018.1 - 0.0 - Cloudy 10 - - - -
29/05:30pm 17.5 WNW 19 26 1018.0 - 0.0 - Partly cloudy 10 - - - -
29/05:00pm 17.7 WNW 18 23 1018.0 - 0.0 - Partly cloudy 10 - - - -
29/04:30pm 17.9 WNW 21 25 1017.8 - 0.0 - Partly cloudy 10 - - - -
29/04:00pm 17.7 NW 21 27 1017.9 - 0.0 - Partly cloudy 10 - - - -
29/03:30pm 18.4 NW 21 26 1017.9 - 0.0 - Partly cloudy 10 - - - -
29/03:00pm 18.0 NW 21 26 1018.0 - 0.0 - Cloudy 10 - - - -
29/02:30pm 17.7 NW 19 23 1018.1 - 0.0 - Cloudy 10 - - - -
29/02:00pm 18.1 NW 19 22 1018.3 - 0.0 - Partly cloudy 10 - - - -
29/01:30pm 18.8 NW 16 21 1018.3 - 0.0 - Partly cloudy 10 - - - -
29/01:00pm 17.9 NW 18 24 1018.6 - 0.0 - Partly cloudy 10 - - - -
29/12:30pm 17.4 NW 19 23 1018.7 - 0.0 - Partly cloudy 10 - - - -
29/12:00pm 17.9 NW 16 20 1018.8 - 0.0 - Partly cloudy 10 - - - -
29/11:30am 17.7 WNW 15 19 1018.9 - 0.0 - Partly cloudy 10 - - - -
29/11:00am 16.3 WNW 18 23 1019.3 - 0.0 - Partly cloudy 10 - - - -
29/10:30am 16.0 WNW 13 18 1019.3 - 0.0 - Partly cloudy 10 - - - -
29/10:00am 16.4 WNW 14 17 1019.3 - 0.0 - Partly cloudy 10 - - - -
29/09:30am 15.5 WNW 14 17 1019.0 - 0.0 - Partly cloudy 10 - - - -
29/09:00am 14.7 WNW 11 15 1019.0 - 0.0 - Cloudy 10 - - - -
29/08:30am 14.7 WNW 15 18 1019.0 - 0.0 - Cloudy 10 - - - -
29/08:00am 14.1 W 12 15 1018.9 - 0.0 - Cloudy 10 - - - -
29/07:30am 13.7 W 12 16 1018.8 - 0.0 - Cloudy 10 - - - -
29/07:00am 13.8 WNW 16 20 1018.6 - 0.0 - Cloudy 10 - - - -
29/06:30am 13.9 WNW 13 17 1018.5 - 0.0 - Cloudy 10 - - - -
29/06:00am 13.7 WNW 14 19 1018.5 - 0.0 - Cloudy 10 - - - -
29/05:30am 13.6 W 13 17 1018.3 - 0.0 - Cloudy 10 - - - -
29/05:00am 13.1 W 9 13 1018.6 - 0.0 - Cloudy 10 - - - -
29/04:30am 13.0 W 15 19 1018.8 - 0.0 - Cloudy 10 - - - -
29/04:00am 13.2 W 13 18 1018.3 - 0.0 - Cloudy 10 - - - -
29/03:30am 13.3 W 14 19 1018.5 - 0.0 - Cloudy 10 - - - -
29/03:00am 13.3 W 14 18 1018.7 - 0.0 - Cloudy 10 - - - -
29/02:30am 12.9 W 11 15 1019.1 - 0.0 - Cloudy 10 - - - -
29/02:00am 12.3 W 7 10 1019.2 - 0.0 - Cloudy 10 - - - -
29/01:30am 12.2 W 10 13 1019.5 - 0.0 - Cloudy 10 - - - -
29/01:00am 12.0 W 16 20 1019.6 - 0.0 - Partly cloudy 10 - - - -
29/12:30am 12.1 WNW 18 21 1019.4 - 0.0 - - 10 - - - -
29/12:00am 12.7 WNW 19 24 1019.4 - 0.0 - - 10 - - - -
 
Date/Time
EDT
Temp

°C
Wind Pressure Rain
since 9am
mm
Weather Cloud Vis
km
Sea
Height
m
Swell
Dir
 
Speed
knots
Gust
knots
hPa Trend Height
m
Period
s
Dir
28/11:30pm 12.8 WNW 19 23 1019.7 - 0.0 - - 10 - - - -
28/11:00pm 13.3 WNW 19 23 1019.7 - 0.0 - - 10 - - - -
28/10:30pm 13.5 WNW 17 21 1019.8 - 0.0 - - 10 - - - -
28/10:00pm 13.9 WNW 17 20 1019.8 - 0.0 - - 10 - - - -
28/09:30pm 14.1 WNW 13 17 1019.8 - 0.0 - - 10 - - - -
28/09:00pm 14.4 WNW 14 17 1019.6 - 0.0 - - 10 - - - -
28/08:30pm 14.9 WNW 15 19 1019.3 - 0.0 - - 10 - - - -
28/08:00pm 14.6 W 15 19 1019.0 - 0.0 - - 10 - - - -
28/07:30pm 15.6 W 16 20 1019.0 - 0.0 - - 10 - - - -
28/07:00pm 16.3 WNW 16 20 1018.8 - 0.0 - - 10 - - - -
28/06:30pm 17.2 WNW 15 20 1018.6 - 0.0 - - 10 - - - -
28/06:00pm 18.0 WNW 17 22 1018.6 - 0.0 - - 10 - - - -
28/05:30pm 17.4 NW 21 27 1018.6 - 0.0 - - 10 - - - -
28/05:00pm 17.3 NW 22 29 1018.8 - 0.0 - - 10 - - - -
28/04:30pm 17.4 NW 22 28 1018.9 - 0.0 - - 10 - - - -
28/04:00pm 17.6 NW 20 25 1019.1 - 0.0 - - 10 - - - -
28/03:30pm 17.6 NW 20 25 1019.3 - 0.0 - - 10 - - - -
28/03:00pm 17.4 NW 20 25 1019.7 - 0.0 - - 10 - - - -
28/02:30pm 17.1 NW 20 23 1020.0 - 0.0 - - 10 - - - -
28/02:00pm 17.2 NW 17 21 1020.5 - 0.0 - - 10 - - - -
28/01:56pm 17.4 NW 16 21 1020.6 - 0.0 - - 10 - - - -
28/01:30pm 16.8 NNW 9 11 1021.1 - 0.0 - - 10 - - - -
28/01:00pm 16.1 NNW 9 11 1021.4 - 0.0 - - 10 - - - -
28/12:30pm 15.7 N 9 11 1021.7 - 0.0 - - 10 - - - -
28/12:00pm 15.3 NNW 9 12 1022.0 - 0.0 - - 10 - - - -
28/11:30am 15.1 NNW 8 10 1022.2 - 0.0 - - 10 - - - -
28/11:00am 14.8 NNE 4 7 1022.3 - 0.0 - - 10 - - - -
28/10:30am 14.0 WSW 3 5 1022.7 - 0.0 - - 10 - - - -
28/10:00am 13.1 S 4 5 1022.7 - 0.0 - - 10 - - - -
28/09:30am 12.0 S 5 7 1022.7 - 0.0 - - 10 - - - -
28/09:00am 10.2 SSE 6 7 1022.3 - 0.4 - - 10 - - - -
28/08:30am 8.4 S 6 7 1022.2 - 0.4 - - 10 - - - -
28/08:00am 7.1 S 8 9 1022.0 - 0.4 - - 10 - - - -
28/07:30am 6.7 S 6 7 1021.9 - 0.4 - - 10 - - - -
28/07:00am 6.3 S 5 7 1021.6 - 0.4 - - 10 - - - -
28/06:30am 6.5 S 6 7 1021.4 - 0.4 - - 10 - - - -
28/06:00am 6.9 S 5 6 1021.3 - 0.4 - - 10 - - - -
28/05:30am 6.5 SSE 7 8 1021.0 - 0.4 - - 10 - - - -
28/05:00am 6.5 SSE 6 6 1020.9 - 0.4 - - 10 - - - -
28/04:30am 6.4 S 4 5 1020.8 - 0.4 - - 10 - - - -
28/04:00am 6.7 SSE 2 4 1020.7 - 0.4 - - 10 - - - -
28/03:30am 6.8 SE 4 5 1020.7 - 0.4 - - 10 - - - -
28/03:00am 7.6 CALM 0 0 1020.8 - 0.4 - - 10 - - - -
28/02:30am 8.2 W 2 4 1020.8 - 0.4 - - 10 - - - -
28/02:00am 9.2 S 6 8 1020.7 - 0.4 - - 10 - - - -
28/01:30am 9.3 S 3 5 1020.8 - 0.4 - - 10 - - - -
28/01:00am 10.7 S 6 8 1020.8 - 0.4 - - 10 - - - -
28/12:30am 12.3 SW 8 11 1020.8 - 0.4 - - 10 - - - -
28/12:00am 12.5 SW 8 11 1020.7 - 0.4 - - 10 - - - -
 
Date/Time
EDT
Temp

°C
Wind Pressure Rain
since 9am
mm
Weather Cloud Vis
km
Sea
Height
m
Swell
Dir
 
Speed
knots
Gust
knots
hPa Trend Height
m
Period
s
Dir
27/11:30pm 10.8 W 2 5 1020.7 - 0.4 - - 10 - - - -
27/11:00pm 10.8 SW 2 6 1020.7 - 0.4 - - 10 - - - -
27/10:30pm 12.0 SSW 5 6 1020.5 - 0.4 - - 10 - - - -
27/10:00pm 12.9 SSW 4 8 1020.4 - 0.4 - Partly cloudy 10 - - - -
27/09:30pm 12.1 E 5 6 1020.1 - 0.4 - - 10 - - - -
27/09:00pm 13.1 WSW 8 12 1019.5 - 0.4 - - 10 - - - -
27/08:30pm 15.3 SW 9 12 1019.2 - 0.4 - - 10 - - - -
27/08:00pm 14.1 WSW 4 5 1018.7 - 0.4 - - 10 - - - -
27/07:30pm 15.0 WSW 7 9 1018.2 - 0.4 - - 10 - - - -
27/07:00pm 16.9 SW 9 13 1017.5 - 0.4 - Partly cloudy 10 - - - -
27/06:30pm 17.7 SSW 6 10 1017.2 - 0.4 - Partly cloudy 10 - - - -
27/06:00pm 18.4 SSW 10 14 1016.6 - 0.4 - Partly cloudy 10 - - - -
27/05:30pm 18.3 SSW 11 17 1016.1 - 0.4 - Partly cloudy 10 - - - -
27/05:00pm 19.4 SSW 14 21 1015.7 - 0.4 - - 10 - - - -
27/04:30pm 19.2 SSW 14 24 1014.9 - 0.4 - - 10 - - - -
27/04:00pm 19.5 SW 14 21 1014.6 - 0.4 - Partly cloudy 10 - - - -
27/03:30pm 19.1 WSW 9 13 1014.7 - 0.4 - Partly cloudy 10 - - - -
27/03:00pm 18.5 WSW 12 17 1014.2 - 0.4 - Cloudy 10 - - - -
27/02:30pm 17.6 SW 11 15 1013.9 - 0.4 - Partly cloudy 10 - - - -
27/02:00pm 17.3 SW 14 21 1013.7 - 0.4 - - 10 - - - -
27/01:30pm 17.2 SW 13 19 1013.9 - 0.4 - - 10 - - - -
27/01:00pm 16.6 WSW 11 15 1013.8 - 0.4 - - 10 - - - -
27/12:30pm 15.7 W 8 11 1013.8 - 0.4 - Cloudy 10 - - - -
27/12:00pm 14.5 WNW 9 13 1013.9 - 0.4 - Mostly cloudy 10 - - - -
27/11:30am 13.4 W 8 11 1013.7 - 0.4 - Partly cloudy 10 - - - -
27/11:00am 12.0 W 3 7 1013.8 - 0.4 - Cloudy 10 - - - -
27/10:30am 11.6 SW 4 6 1013.5 - 0.4 - Partly cloudy 10 - - - -
27/10:00am 10.9 W 7 9 1013.3 - 0.4 - Partly cloudy 10 - - - -
27/09:30am 9.9 WSW 7 10 1013.2 - 0.4 - Cloudy 10 - - - -
27/09:00am 8.7 WSW 3 7 1013.1 - 13.8 Rain Cloudy 10 - - - -
27/08:30am 7.3 E 4 5 1013.0 - 13.8 - Cloudy 10 - - - -
27/08:00am 6.4 E 3 4 1012.7 - 13.8 - - 10 - - - -
27/07:30am 5.8 SE 2 4 1012.5 - 13.8 - - 10 - - - -
27/07:00am 5.7 S 4 7 1012.2 - 13.8 - - 10 - - - -
27/06:30am 5.7 SSE 5 7 1011.5 - 13.8 - - 10 - - - -
27/06:00am 5.8 S 6 7 1011.3 - 13.8 - - 10 - - - -
27/05:30am 5.9 SSW 7 9 1010.7 - 13.8 - - 10 - - - -
27/05:00am 6.2 S 10 14 1010.7 - 13.8 - - 10 - - - -
27/04:30am 6.4 SSW 8 9 1010.5 - 13.8 - - 10 - - - -
27/04:00am 6.7 S 5 7 1010.5 - 13.6 - - 10 - - - -
27/03:30am 6.6 SSE 7 8 1010.8 - 13.6 - - 10 - - - -
27/03:00am 7.2 WSW 5 9 1011.0 - 13.6 - - 10 - - - -
27/02:30am 7.1 SSE 4 6 1010.9 - 13.6 - - 10 - - - -
27/02:00am 8.3 SSW 5 7 1011.2 - 13.6 - - 10 - - - -
27/01:30am 8.4 S 3 4 1011.3 - 13.6 - Partly cloudy 10 - - - -
27/01:00am 8.6 S 4 5 1011.3 - 13.6 - Partly cloudy 10 - - - -

Other Formats:

Comma delimited format used in spreadsheet applications
http://www.bom.gov.au/fwo/IDV60701/IDV60701.95960.axf

JavaScript Object Notation format (JSON) in row-major order
http://www.bom.gov.au/fwo/IDV60701/IDV60701.95960.json